Impacts TAF Board INFO
FOR SITUATIONAL AWARENESS. NOT TO BE USED FOR FLIGHT PLANNING PURPOSES.
IDs:

KDFW - Dallas-Ft Worth Intl, TX, US

Issued at 1725 UTC 21 Jun 2018
Updated at 1950 UTC 21 Jun 2018
Potential Impact None Slight Moderate High
Time1853Z 21/20Z 21/21Z 21/22Z 21/23Z 22/00Z 22/01Z 22/02Z 22/03Z 22/04Z 22/05Z 22/06Z 22/07Z 22/08Z>>
Type OBS PRVL PRVL PRVL PRVL PRVL PRVL PRVL PRVL PRVL PRVL PRVL PRVL PRVL
VIS 10 >6 >6 >6 >6 >6 >6 >6 >6 >6 >6 >6 >6 >6
CIG -- -- -- -- -- -- -- -- -- -- -- -- -- --
Cover SCT SCT SCT SCT SCT SCT SCT SCT SCT SCT SCT SCT SCT SCT
FltCat VFR VFR VFR VFR VFR VFR VFR VFR VFR VFR VFR VFR VFR VFR
WX -- -- -- -- -- -- -- -- -- -- -- -- -- --
WDir 350 350 350 350 180 180 180 180 180 180 180 180 180 180
WSpd 6 5 5 5 7 7 7 7 7 7 7 7 7 7
WGst -- -- -- -- -- -- -- -- -- -- -- -- -- --

Raw TAF
KDFW 211725Z 2118/2224 35005KT P6SM SCT035
  FM212300 18007KT P6SM SCT250
  FM221000 23014KT P6SM SCT150


Raw METAR
KDFW 211853Z 35006KT 10SM SCT055 SCT250 35/19 A2989 RMK AO2 SLP113 T03500189
KDFW 211753Z VRB05KT 10SM SCT045 SCT250 34/17 A2991 RMK AO2 SLP119 T03390172 10344 20244 58006
KDFW 211653Z VRB03KT 10SM FEW035 FEW300 33/21 A2992 RMK AO2 SLP122 T03280206

METAR Board
Radar Display
Forecast Discussion

FOR SITUATIONAL AWARENESS. NOT TO BE USED FOR FLIGHT PLANNING PURPOSES.